createdAt,value
2024-03-12T00:00:09.443Z,1.12
2024-03-12T00:00:36.152Z,1.12
2024-03-12T00:00:55.898Z,1.12
2024-03-12T00:01:27.332Z,1.28
2024-03-12T00:01:58.917Z,1.61
2024-03-12T00:02:30.867Z,1.77
2024-03-12T00:03:02.838Z,1.77
2024-03-12T00:03:35.220Z,1.77
2024-03-12T00:04:07.153Z,1.77
2024-03-12T00:04:37.216Z,1.77
2024-03-12T00:04:54.804Z,1.77
2024-03-12T00:05:28.558Z,1.77
2024-03-12T00:05:59.516Z,1.77
2024-03-12T00:06:31.820Z,1.77
2024-03-12T00:07:02.920Z,1.77
2024-03-12T00:07:34.683Z,1.77
2024-03-12T00:08:06.876Z,1.77
2024-03-12T00:08:36.292Z,1.77
2024-03-12T00:08:55.592Z,1.77
2024-03-12T00:09:27.547Z,1.77
2024-03-12T00:10:00.093Z,1.77
2024-03-12T00:10:31.965Z,1.77
2024-03-12T00:11:03.217Z,1.77
2024-03-12T00:11:34.828Z,1.77
2024-03-12T00:12:07.934Z,1.77
2024-03-12T00:12:36.626Z,1.77
2024-03-12T00:12:54.800Z,1.77
2024-03-12T00:13:27.883Z,1.77
2024-03-12T00:13:59.524Z,1.77
2024-03-12T00:14:30.910Z,1.77
2024-03-12T00:15:06.180Z,1.77
2024-03-12T00:15:35.336Z,1.77
2024-03-12T00:16:07.118Z,1.77
2024-03-12T00:16:36.022Z,1.77
2024-03-12T00:16:54.762Z,1.77
2024-03-12T00:17:27.629Z,1.61
2024-03-12T00:17:58.979Z,1.44
2024-03-12T00:18:30.782Z,1.44
2024-03-12T00:19:02.860Z,1.44
2024-03-12T00:19:35.355Z,1.44
2024-03-12T00:20:09.049Z,1.44
2024-03-12T00:20:36.101Z,1.44
2024-03-12T00:20:55.768Z,1.44
2024-03-12T00:21:27.210Z,1.44
2024-03-12T00:21:58.870Z,1.44
2024-03-12T00:22:30.813Z,1.44
2024-03-12T00:23:02.805Z,1.44
2024-03-12T00:23:35.160Z,1.44
2024-03-12T00:24:07.634Z,1.61
2024-03-12T00:24:36.141Z,1.77
2024-03-12T00:24:54.790Z,1.77
2024-03-12T00:25:28.025Z,1.77
2024-03-12T00:26:00.077Z,1.77
2024-03-12T00:26:30.891Z,1.77
2024-03-12T00:27:03.123Z,1.77
2024-03-12T00:27:34.652Z,1.77
2024-03-12T00:28:07.418Z,1.77
2024-03-12T00:28:36.177Z,1.77
2024-03-12T00:28:54.993Z,2.17
2024-03-12T00:29:27.472Z,2.73
2024-03-12T00:29:59.377Z,2.89
2024-03-12T00:30:32.475Z,3.05
2024-03-12T00:31:02.884Z,3.21
2024-03-12T00:31:34.703Z,3.21
2024-03-12T00:32:07.425Z,3.38
2024-03-12T00:32:36.110Z,3.54
2024-03-12T00:32:55.001Z,3.54
2024-03-12T00:33:27.936Z,3.54
2024-03-12T00:33:59.588Z,3.54
2024-03-12T00:34:30.826Z,3.54
2024-03-12T00:35:05.333Z,3.54
2024-03-12T00:35:34.778Z,3.54
2024-03-12T00:36:07.324Z,3.54
2024-03-12T00:36:36.728Z,3.54
2024-03-12T00:36:55.240Z,3.54
2024-03-12T00:37:27.689Z,3.54
2024-03-12T00:37:58.872Z,3.54
2024-03-12T00:38:31.717Z,3.54
2024-03-12T00:39:02.739Z,3.54
2024-03-12T00:39:34.947Z,3.54
2024-03-12T00:40:08.802Z,3.54
2024-03-12T00:40:37.345Z,3.54
2024-03-12T00:40:56.740Z,3.54
2024-03-12T00:41:27.342Z,3.54
2024-03-12T00:41:59.011Z,3.54
2024-03-12T00:42:30.905Z,3.54
2024-03-12T00:43:02.706Z,3.54
2024-03-12T00:43:34.679Z,3.54
2024-03-12T00:44:07.188Z,3.54
2024-03-12T00:44:36.439Z,3.54
2024-03-12T00:44:54.796Z,3.54
2024-03-12T00:45:29.569Z,3.54
2024-03-12T00:45:59.470Z,3.54
2024-03-12T00:46:31.902Z,3.54
2024-03-12T00:47:03.013Z,3.54
2024-03-12T00:47:35.049Z,3.54
2024-03-12T00:48:07.391Z,3.54
2024-03-12T00:48:36.509Z,3.54
2024-03-12T00:48:54.810Z,3.54
2024-03-12T00:49:27.252Z,3.54
2024-03-12T00:49:59.863Z,3.54
2024-03-12T00:50:31.960Z,3.38
2024-03-12T00:51:02.867Z,3.38
2024-03-12T00:51:34.738Z,3.21
2024-03-12T00:52:07.141Z,3.21
2024-03-12T00:52:36.867Z,3.05
2024-03-12T00:52:54.788Z,2.89
2024-03-12T00:53:27.371Z,2.49
2024-03-12T00:53:58.835Z,2.09
2024-03-12T00:54:30.892Z,1.93
2024-03-12T00:55:04.869Z,1.77
2024-03-12T00:55:35.150Z,1.45
2024-03-12T00:56:07.390Z,1.12
2024-03-12T00:56:36.525Z,1.12
2024-03-12T00:56:54.915Z,1.12
2024-03-12T00:57:27.809Z,1.12
2024-03-12T00:57:59.359Z,.88
2024-03-12T00:58:31.285Z,.48
2024-03-12T00:59:02.782Z,.32
2024-03-12T00:59:35.529Z,.32
2024-03-12T01:00:09.528Z,.16
2024-03-12T01:00:36.769Z,0
2024-03-12T01:00:55.839Z,0
2024-03-12T01:01:27.628Z,0
2024-03-12T01:01:59.330Z,0
2024-03-12T01:02:30.894Z,0
2024-03-12T01:03:02.772Z,0
2024-03-12T01:03:34.851Z,0
2024-03-12T01:04:07.234Z,0
2024-03-12T01:04:37.112Z,0
2024-03-12T01:04:55.113Z,0
2024-03-12T01:05:28.329Z,0
2024-03-12T01:05:59.913Z,0
2024-03-12T01:06:30.808Z,0
2024-03-12T01:07:02.976Z,0
2024-03-12T01:07:34.683Z,0
2024-03-12T01:08:07.336Z,0
2024-03-12T01:08:36.282Z,0
2024-03-12T01:08:54.697Z,0
2024-03-12T01:09:27.326Z,0
2024-03-12T01:09:59.350Z,0
2024-03-12T01:10:36.749Z,0
2024-03-12T01:11:02.854Z,0
2024-03-12T01:11:35.075Z,0
2024-03-12T01:12:07.965Z,0
2024-03-12T01:12:36.191Z,0
2024-03-12T01:12:54.776Z,0
2024-03-12T01:13:27.167Z,0
2024-03-12T01:13:59.081Z,0
2024-03-12T01:14:30.822Z,0
2024-03-12T01:15:05.639Z,.16
2024-03-12T01:15:35.485Z,.32
2024-03-12T01:16:07.081Z,.72
2024-03-12T01:16:36.251Z,1.28
2024-03-12T01:16:54.773Z,1.61
2024-03-12T01:17:32.690Z,1.77
2024-03-12T01:17:59.389Z,1.77
2024-03-12T01:18:30.875Z,1.77
2024-03-12T01:19:02.802Z,1.77
2024-03-12T01:19:34.847Z,1.77
2024-03-12T01:20:08.679Z,1.77
2024-03-12T01:20:36.473Z,1.77
2024-03-12T01:20:56.448Z,1.77
2024-03-12T01:21:27.650Z,1.77
2024-03-12T01:21:59.621Z,1.93
2024-03-12T01:22:30.947Z,1.93
2024-03-12T01:23:02.737Z,1.77
2024-03-12T01:23:34.747Z,1.77
2024-03-12T01:24:07.143Z,1.77
2024-03-12T01:24:36.838Z,1.77
2024-03-12T01:24:55.551Z,1.77
2024-03-12T01:25:29.092Z,1.77
2024-03-12T01:25:59.842Z,1.77
2024-03-12T01:26:31.856Z,1.77
2024-03-12T01:27:03.759Z,1.77
2024-03-12T01:27:35.289Z,1.77
2024-03-12T01:28:09.003Z,1.77
2024-03-12T01:28:36.401Z,1.77
2024-03-12T01:28:54.692Z,1.77
2024-03-12T01:29:27.262Z,1.77
2024-03-12T01:29:59.133Z,1.77
2024-03-12T01:30:32.708Z,1.77
2024-03-12T01:31:02.964Z,1.77
2024-03-12T01:31:35.099Z,1.77
2024-03-12T01:32:07.330Z,1.77
2024-03-12T01:32:36.708Z,1.77
2024-03-12T01:32:55.065Z,1.77
2024-03-12T01:33:27.462Z,1.77
2024-03-12T01:33:59.481Z,1.77
2024-03-12T01:34:30.861Z,1.77
2024-03-12T01:35:05.031Z,1.77
2024-03-12T01:35:35.096Z,1.77
2024-03-12T01:36:07.009Z,1.77
2024-03-12T01:36:37.019Z,1.77
2024-03-12T01:36:55.651Z,1.77
2024-03-12T01:37:27.482Z,1.77
2024-03-12T01:37:59.650Z,1.77
2024-03-12T01:38:30.983Z,1.77
2024-03-12T01:39:03.017Z,1.77
2024-03-12T01:39:34.715Z,1.77
2024-03-12T01:40:08.962Z,1.77
2024-03-12T01:40:36.288Z,1.77
2024-03-12T01:40:55.475Z,1.77
2024-03-12T01:41:27.310Z,1.77
2024-03-12T01:41:58.860Z,1.77
2024-03-12T01:42:30.878Z,1.77
2024-03-12T01:43:03.377Z,1.77
2024-03-12T01:43:34.665Z,1.77
2024-03-12T01:44:07.128Z,1.77
2024-03-12T01:44:37.081Z,1.77
2024-03-12T01:44:55.282Z,1.77
2024-03-12T01:45:28.500Z,1.77
2024-03-12T01:45:59.379Z,1.77
2024-03-12T01:46:30.893Z,1.77
2024-03-12T01:47:03.419Z,1.77
2024-03-12T01:47:35.875Z,1.77
2024-03-12T01:48:06.996Z,1.77
2024-03-12T01:48:36.083Z,1.77
2024-03-12T01:48:55.354Z,1.77
2024-03-12T01:49:27.377Z,1.77
2024-03-12T01:49:59.110Z,1.77
2024-03-12T01:50:31.791Z,1.77
2024-03-12T01:51:02.945Z,1.77
2024-03-12T01:51:34.864Z,1.77
2024-03-12T01:52:07.175Z,1.77
2024-03-12T01:52:36.545Z,1.77
2024-03-12T01:52:54.783Z,1.77
2024-03-12T01:53:27.278Z,1.77
2024-03-12T01:53:59.228Z,1.77
2024-03-12T01:54:31.421Z,1.77
2024-03-12T01:55:05.523Z,1.77
2024-03-12T01:55:34.729Z,1.77
2024-03-12T01:56:07.003Z,1.77
2024-03-12T01:56:36.122Z,1.77
2024-03-12T01:56:54.731Z,1.93
2024-03-12T01:57:27.229Z,2.09
2024-03-12T01:57:59.349Z,2.09
2024-03-12T01:58:31.263Z,2.09
2024-03-12T01:59:02.955Z,2.09
2024-03-12T01:59:35.048Z,2.33
2024-03-12T02:00:09.131Z,2.33
2024-03-12T02:00:36.429Z,2.33
2024-03-12T02:00:55.767Z,2.33
2024-03-12T02:01:27.504Z,2.33
2024-03-12T02:01:59.049Z,2.33
2024-03-12T02:02:31.008Z,2.33
2024-03-12T02:03:02.773Z,2.09
2024-03-12T02:03:34.915Z,2.09
2024-03-12T02:04:07.374Z,2.09
2024-03-12T02:04:36.649Z,1.93
2024-03-12T02:04:55.488Z,1.77
2024-03-12T02:05:28.379Z,1.77
2024-03-12T02:06:00.094Z,1.77
2024-03-12T02:06:31.856Z,1.77
2024-03-12T02:07:02.886Z,1.77
2024-03-12T02:07:34.947Z,1.77
2024-03-12T02:08:07.669Z,1.77
2024-03-12T02:08:36.493Z,1.77
2024-03-12T02:08:54.845Z,1.77
2024-03-12T02:09:27.196Z,1.77
2024-03-12T02:09:59.525Z,1.77
2024-03-12T02:10:32.144Z,1.93
2024-03-12T02:11:03.242Z,2.09
2024-03-12T02:11:34.816Z,2.33
2024-03-12T02:12:07.121Z,2.57
2024-03-12T02:12:36.113Z,2.89
2024-03-12T02:12:54.852Z,3.05
2024-03-12T02:13:27.321Z,3.38
2024-03-12T02:13:58.946Z,3.54
2024-03-12T02:14:31.061Z,3.54
2024-03-12T02:15:05.885Z,3.54
2024-03-12T02:15:34.861Z,3.54
2024-03-12T02:16:07.317Z,3.54
2024-03-12T02:16:36.534Z,3.54
2024-03-12T02:16:54.871Z,3.54
2024-03-12T02:17:27.389Z,3.54
2024-03-12T02:17:59.154Z,3.54
2024-03-12T02:18:30.891Z,3.54
2024-03-12T02:19:02.750Z,3.54
2024-03-12T02:19:34.782Z,3.54
2024-03-12T02:20:08.691Z,3.54
2024-03-12T02:20:36.658Z,3.54
2024-03-12T02:20:55.908Z,3.54
2024-03-12T02:21:27.531Z,3.54
2024-03-12T02:21:59.000Z,3.54
2024-03-12T02:22:31.077Z,3.54
2024-03-12T02:23:02.798Z,3.54
2024-03-12T02:23:34.746Z,3.54
2024-03-12T02:24:07.499Z,3.54
2024-03-12T02:24:36.457Z,3.54
2024-03-12T02:24:54.906Z,3.54
2024-03-12T02:25:28.122Z,3.54
2024-03-12T02:25:58.973Z,3.54
2024-03-12T02:26:30.838Z,3.54
2024-03-12T02:27:03.600Z,3.54
2024-03-12T02:27:34.884Z,3.54
2024-03-12T02:28:07.505Z,3.54
2024-03-12T02:28:37.973Z,3.54
2024-03-12T02:28:54.856Z,3.54
2024-03-12T02:29:27.467Z,3.54
2024-03-12T02:29:59.004Z,3.54
2024-03-12T02:30:32.305Z,3.54
2024-03-12T02:31:02.869Z,3.54
2024-03-12T02:31:34.904Z,3.54
2024-03-12T02:32:07.495Z,3.54
2024-03-12T02:32:36.891Z,3.54
2024-03-12T02:32:54.944Z,3.54
2024-03-12T02:33:27.256Z,3.54
2024-03-12T02:33:59.336Z,3.54
2024-03-12T02:34:30.944Z,3.54
2024-03-12T02:35:05.404Z,3.54
2024-03-12T02:35:35.099Z,3.54
2024-03-12T02:36:07.052Z,3.54
2024-03-12T02:36:36.305Z,3.54
2024-03-12T02:36:55.366Z,3.54
2024-03-12T02:37:36.752Z,3.54
2024-03-12T02:37:59.609Z,3.54
2024-03-12T02:38:31.295Z,3.54
2024-03-12T02:39:02.829Z,3.54
2024-03-12T02:39:35.553Z,3.54
2024-03-12T02:40:08.907Z,3.54
2024-03-12T02:40:36.304Z,3.54
2024-03-12T02:40:55.664Z,3.54
2024-03-12T02:41:27.628Z,3.78
2024-03-12T02:41:59.547Z,4.02
2024-03-12T02:42:31.049Z,4.02
2024-03-12T02:43:03.018Z,4.02
2024-03-12T02:43:35.124Z,4.02
2024-03-12T02:44:07.662Z,4.02
2024-03-12T02:44:36.490Z,4.02
2024-03-12T02:44:54.982Z,4.02
2024-03-12T02:45:28.720Z,4.02
2024-03-12T02:45:59.617Z,4.02
2024-03-12T02:46:31.680Z,4.02
2024-03-12T02:47:02.793Z,4.02
2024-03-12T02:47:36.060Z,3.78
2024-03-12T02:48:07.436Z,3.54
2024-03-12T02:48:37.222Z,3.54
2024-03-12T02:48:54.805Z,3.54
2024-03-12T02:49:27.306Z,3.54
2024-03-12T02:49:59.460Z,3.54
2024-03-12T02:50:32.258Z,3.54
2024-03-12T02:51:03.409Z,3.54
2024-03-12T02:51:35.478Z,3.54
2024-03-12T02:52:07.290Z,3.54
2024-03-12T02:52:36.163Z,3.54
2024-03-12T02:52:54.766Z,3.54
2024-03-12T02:53:27.993Z,3.54
2024-03-12T02:53:59.707Z,3.54
2024-03-12T02:54:31.613Z,3.54
2024-03-12T02:55:05.239Z,3.54
2024-03-12T02:55:35.499Z,3.54
2024-03-12T02:56:07.133Z,3.54
2024-03-12T02:56:37.623Z,3.54
2024-03-12T02:56:54.809Z,3.54
2024-03-12T02:57:27.270Z,3.54
2024-03-12T02:57:59.059Z,3.54
2024-03-12T02:58:30.984Z,3.54
2024-03-12T02:59:03.150Z,3.54
2024-03-12T02:59:35.086Z,3.54
2024-03-12T03:00:08.864Z,3.54
2024-03-12T03:00:36.392Z,3.54
2024-03-12T03:00:55.963Z,3.54
2024-03-12T03:01:27.370Z,3.54
2024-03-12T03:01:59.384Z,3.54
2024-03-12T03:02:31.103Z,3.54
2024-03-12T03:03:03.498Z,3.54
2024-03-12T03:03:35.072Z,3.54
2024-03-12T03:04:07.586Z,3.54
2024-03-12T03:04:36.183Z,3.54
2024-03-12T03:04:55.090Z,3.54
2024-03-12T03:05:28.288Z,3.38
2024-03-12T03:05:59.064Z,3.21
2024-03-12T03:06:31.213Z,3.21
2024-03-12T03:07:03.564Z,3.21
2024-03-12T03:07:35.543Z,3.05
2024-03-12T03:08:07.483Z,2.89
2024-03-12T03:08:36.370Z,2.89
2024-03-12T03:08:55.399Z,2.89
2024-03-12T03:09:27.794Z,2.89
2024-03-12T03:09:59.073Z,3.05
2024-03-12T03:10:32.152Z,3.21
2024-03-12T03:11:02.766Z,3.21
2024-03-12T03:11:34.903Z,3.38
2024-03-12T03:12:07.247Z,3.54
2024-03-12T03:12:36.524Z,3.54
2024-03-12T03:12:55.057Z,3.54
2024-03-12T03:13:27.314Z,3.54
2024-03-12T03:13:58.942Z,3.54
2024-03-12T03:14:31.251Z,3.54
2024-03-12T03:15:06.040Z,3.54
2024-03-12T03:15:35.682Z,3.54
2024-03-12T03:16:07.188Z,3.54
2024-03-12T03:16:36.096Z,3.54
2024-03-12T03:16:54.766Z,3.78
2024-03-12T03:17:27.623Z,4.02
2024-03-12T03:17:59.089Z,4.02
2024-03-12T03:18:31.032Z,4.18
2024-03-12T03:19:03.125Z,4.50
2024-03-12T03:19:35.584Z,4.66
2024-03-12T03:20:08.557Z,4.66
2024-03-12T03:20:36.927Z,4.66
2024-03-12T03:20:56.046Z,4.66
2024-03-12T03:21:27.932Z,4.66
2024-03-12T03:21:59.155Z,4.66
2024-03-12T03:22:31.218Z,4.66
2024-03-12T03:23:02.734Z,4.66
2024-03-12T03:23:34.799Z,4.66
2024-03-12T03:24:07.471Z,4.66
2024-03-12T03:24:36.154Z,4.66
2024-03-12T03:24:54.912Z,4.66
2024-03-12T03:25:28.692Z,4.66
2024-03-12T03:25:59.271Z,4.66
2024-03-12T03:26:31.087Z,4.66
2024-03-12T03:27:02.750Z,4.66
2024-03-12T03:27:36.182Z,4.82
2024-03-12T03:28:07.085Z,4.82
2024-03-12T03:28:38.026Z,4.66
2024-03-12T03:28:55.218Z,4.66
2024-03-12T03:29:27.698Z,4.66
2024-03-12T03:29:58.948Z,4.66
2024-03-12T03:30:32.532Z,4.34
2024-03-12T03:31:02.834Z,4.34
2024-03-12T03:31:35.091Z,4.02
2024-03-12T03:32:07.300Z,4.02
2024-03-12T03:32:36.602Z,4.02
2024-03-12T03:32:54.800Z,4.02
2024-03-12T03:33:27.361Z,3.61
2024-03-12T03:33:59.170Z,3.05
2024-03-12T03:34:32.685Z,2.73
2024-03-12T03:35:04.945Z,2.33
2024-03-12T03:35:34.745Z,2.09
2024-03-12T03:36:07.065Z,2.09
2024-03-12T03:36:36.747Z,1.93
2024-03-12T03:36:54.912Z,1.77
2024-03-12T03:37:27.844Z,1.77
2024-03-12T03:37:59.017Z,1.77
2024-03-12T03:38:31.052Z,1.77
2024-03-12T03:39:02.821Z,1.77
2024-03-12T03:39:35.198Z,1.77
2024-03-12T03:40:09.021Z,1.77
2024-03-12T03:40:36.725Z,1.77
2024-03-12T03:40:57.250Z,1.77
2024-03-12T03:41:27.147Z,1.77
2024-03-12T03:41:59.268Z,1.77
2024-03-12T03:42:31.037Z,1.77
2024-03-12T03:43:02.927Z,1.77
2024-03-12T03:43:34.918Z,1.77
2024-03-12T03:44:07.067Z,1.77
2024-03-12T03:44:36.256Z,1.77
2024-03-12T03:44:55.012Z,1.77
2024-03-12T03:45:30.895Z,1.77
2024-03-12T03:45:59.125Z,1.77
2024-03-12T03:46:30.989Z,1.77
2024-03-12T03:47:03.803Z,1.77
2024-03-12T03:47:34.931Z,1.77
2024-03-12T03:48:07.506Z,1.77
2024-03-12T03:48:36.455Z,1.77
2024-03-12T03:48:55.407Z,1.77
2024-03-12T03:49:28.036Z,1.77
2024-03-12T03:49:58.989Z,1.77
2024-03-12T03:50:32.430Z,1.77
2024-03-12T03:51:02.875Z,1.77
2024-03-12T03:51:35.160Z,1.77
2024-03-12T03:52:07.136Z,1.77
2024-03-12T03:52:37.207Z,1.93
2024-03-12T03:52:54.828Z,2.09
2024-03-12T03:53:27.482Z,2.09
2024-03-12T03:53:59.152Z,2.09
2024-03-12T03:54:31.205Z,2.09
2024-03-12T03:55:06.116Z,2.09
2024-03-12T03:55:36.220Z,2.09
2024-03-12T03:56:07.178Z,2.33
2024-03-12T03:56:36.284Z,2.57
2024-03-12T03:56:54.933Z,2.73
2024-03-12T03:57:27.841Z,2.89
2024-03-12T03:57:59.304Z,2.89
2024-03-12T03:58:30.919Z,2.89
2024-03-12T03:59:02.867Z,2.89
2024-03-12T03:59:34.782Z,2.89
2024-03-12T04:00:09.584Z,3.22
2024-03-12T04:00:36.192Z,3.54
2024-03-12T04:00:56.076Z,3.54
2024-03-12T04:01:27.585Z,3.54
2024-03-12T04:01:58.930Z,3.54
2024-03-12T04:02:31.028Z,3.54
2024-03-12T04:03:02.822Z,3.54
2024-03-12T04:03:35.309Z,3.54
2024-03-12T04:04:07.270Z,3.54
2024-03-12T04:04:36.183Z,3.54
2024-03-12T04:04:54.949Z,3.54
2024-03-12T04:05:28.185Z,3.54
2024-03-12T04:05:59.148Z,3.54
2024-03-12T04:06:31.128Z,3.54
2024-03-12T04:07:02.777Z,3.78
2024-03-12T04:07:35.743Z,3.78
2024-03-12T04:08:07.266Z,3.78
2024-03-12T04:08:37.375Z,3.78
2024-03-12T04:08:54.859Z,3.54
2024-03-12T04:09:27.563Z,3.54
2024-03-12T04:09:59.161Z,3.54
2024-03-12T04:10:31.839Z,3.54
2024-03-12T04:11:02.876Z,3.54
2024-03-12T04:11:35.304Z,3.54
2024-03-12T04:12:07.252Z,3.38
2024-03-12T04:12:36.262Z,3.05
2024-03-12T04:12:55.082Z,2.49
2024-03-12T04:13:27.314Z,2.09
2024-03-12T04:13:59.109Z,1.93
2024-03-12T04:14:30.971Z,1.77
2024-03-12T04:15:06.331Z,1.77
2024-03-12T04:15:35.536Z,1.77
2024-03-12T04:16:07.382Z,1.77
2024-03-12T04:16:36.895Z,1.77
2024-03-12T04:16:55.849Z,1.77
2024-03-12T04:17:27.382Z,1.77
2024-03-12T04:17:59.797Z,1.77
2024-03-12T04:18:31.082Z,1.77
2024-03-12T04:19:03.805Z,1.77
2024-03-12T04:19:34.808Z,1.77
2024-03-12T04:20:09.211Z,1.77
2024-03-12T04:20:36.312Z,1.77
2024-03-12T04:20:56.825Z,1.77
2024-03-12T04:21:27.767Z,2.17
2024-03-12T04:21:59.067Z,2.57
2024-03-12T04:22:31.325Z,2.73
2024-03-12T04:23:02.906Z,3.05
2024-03-12T04:23:35.242Z,3.38
2024-03-12T04:24:07.178Z,3.54
2024-03-12T04:24:36.898Z,3.54
2024-03-12T04:24:55.138Z,3.54
2024-03-12T04:25:28.866Z,3.54
2024-03-12T04:25:58.975Z,3.54
2024-03-12T04:26:31.435Z,3.54
2024-03-12T04:27:04.180Z,3.54
2024-03-12T04:27:35.494Z,3.54
2024-03-12T04:28:07.468Z,3.54
2024-03-12T04:28:36.923Z,3.54
2024-03-12T04:28:55.165Z,3.54
2024-03-12T04:29:27.601Z,3.22
2024-03-12T04:29:58.939Z,2.73
2024-03-12T04:30:32.485Z,2.33
2024-03-12T04:31:02.919Z,2.09
2024-03-12T04:31:34.884Z,2.09
2024-03-12T04:32:07.127Z,2.09
2024-03-12T04:32:36.109Z,2.09
2024-03-12T04:32:55.353Z,1.93
2024-03-12T04:33:27.423Z,1.93
2024-03-12T04:34:00.023Z,1.77
2024-03-12T04:34:31.098Z,1.77
2024-03-12T04:35:05.038Z,1.77
2024-03-12T04:35:35.068Z,1.77
2024-03-12T04:36:07.174Z,1.77
2024-03-12T04:36:36.189Z,1.77
2024-03-12T04:36:54.986Z,1.77
2024-03-12T04:37:27.458Z,1.93
2024-03-12T04:37:59.193Z,1.77
2024-03-12T04:38:31.359Z,1.77
2024-03-12T04:39:03.832Z,1.77
2024-03-12T04:39:34.953Z,1.77
2024-03-12T04:40:09.386Z,1.77
2024-03-12T04:40:36.817Z,1.77
2024-03-12T04:40:55.823Z,1.77
2024-03-12T04:41:27.630Z,1.77
2024-03-12T04:41:59.029Z,1.77
2024-03-12T04:42:31.189Z,1.77
2024-03-12T04:43:02.810Z,1.77
2024-03-12T04:43:35.215Z,1.77
2024-03-12T04:44:07.279Z,1.77
2024-03-12T04:44:36.759Z,1.77
2024-03-12T04:44:54.942Z,1.77
2024-03-12T04:45:28.594Z,1.77
2024-03-12T04:45:59.375Z,1.77
2024-03-12T04:46:30.998Z,1.77
2024-03-12T04:47:03.046Z,1.61
2024-03-12T04:47:35.906Z,1.61
2024-03-12T04:48:07.210Z,1.61
2024-03-12T04:48:37.596Z,1.61
2024-03-12T04:48:55.948Z,1.77
2024-03-12T04:49:27.885Z,1.77
2024-03-12T04:49:59.418Z,1.77
2024-03-12T04:50:32.102Z,1.77
2024-03-12T04:51:03.785Z,1.77
2024-03-12T04:51:35.595Z,1.77
2024-03-12T04:52:08.191Z,1.93
2024-03-12T04:52:36.555Z,2.09
2024-03-12T04:52:55.135Z,2.09
2024-03-12T04:53:27.538Z,2.09
2024-03-12T04:53:59.595Z,2.09
2024-03-12T04:54:31.163Z,2.09
2024-03-12T04:55:05.042Z,2.65
2024-03-12T04:55:35.953Z,3.38
2024-03-12T04:56:07.305Z,3.54
2024-03-12T04:56:36.657Z,3.54
2024-03-12T04:56:55.098Z,3.54
2024-03-12T04:57:27.820Z,3.54
2024-03-12T04:57:59.332Z,3.54
2024-03-12T04:58:31.316Z,3.54
2024-03-12T04:59:03.070Z,3.54
2024-03-12T04:59:35.451Z,3.54
2024-03-12T05:00:09.515Z,3.54
2024-03-12T05:00:36.677Z,3.54
2024-03-12T05:00:57.215Z,3.54
2024-03-12T05:01:27.770Z,3.54
2024-03-12T05:01:59.053Z,3.54
2024-03-12T05:02:31.539Z,3.54
2024-03-12T05:03:02.921Z,3.54
2024-03-12T05:03:35.198Z,3.38
2024-03-12T05:04:15.141Z,3.05
2024-03-12T05:04:36.701Z,2.73
2024-03-12T05:04:55.429Z,2.57
2024-03-12T05:05:28.475Z,2.33
2024-03-12T05:05:58.997Z,2.09
2024-03-12T05:06:31.541Z,1.93
2024-03-12T05:07:04.516Z,1.77
2024-03-12T05:07:35.017Z,1.77
2024-03-12T05:08:07.608Z,1.77
2024-03-12T05:08:36.382Z,1.77
2024-03-12T05:08:55.157Z,1.77
2024-03-12T05:09:27.505Z,1.77
2024-03-12T05:09:59.760Z,1.77
2024-03-12T05:10:32.641Z,1.77
2024-03-12T05:11:03.015Z,1.77
2024-03-12T05:11:35.117Z,1.77
2024-03-12T05:12:07.206Z,1.77
2024-03-12T05:12:36.223Z,1.77
2024-03-12T05:12:54.950Z,1.77
2024-03-12T05:13:27.264Z,1.77
2024-03-12T05:13:59.240Z,1.77
2024-03-12T05:14:31.374Z,1.77
2024-03-12T05:15:05.759Z,1.77
2024-03-12T05:15:35.350Z,1.77
2024-03-12T05:16:07.244Z,1.77
2024-03-12T05:16:36.230Z,1.77
2024-03-12T05:16:54.927Z,1.77
2024-03-12T05:17:27.779Z,1.77
2024-03-12T05:17:59.140Z,1.77
2024-03-12T05:18:31.435Z,1.77
2024-03-12T05:19:03.099Z,1.77
2024-03-12T05:19:35.189Z,1.93
2024-03-12T05:20:09.265Z,2.09
2024-03-12T05:20:36.449Z,2.09
2024-03-12T05:20:56.081Z,2.49
2024-03-12T05:21:30.701Z,2.89
2024-03-12T05:21:59.025Z,2.89
2024-03-12T05:22:31.240Z,3.05
2024-03-12T05:23:03.054Z,3.21
2024-03-12T05:23:35.036Z,3.38
2024-03-12T05:24:07.273Z,3.54
2024-03-12T05:24:36.490Z,3.54
2024-03-12T05:24:54.880Z,3.54
2024-03-12T05:25:28.434Z,3.54
2024-03-12T05:25:59.290Z,3.54
2024-03-12T05:26:31.308Z,3.54
2024-03-12T05:27:04.753Z,3.54
2024-03-12T05:27:36.322Z,3.54
2024-03-12T05:28:07.372Z,3.54
2024-03-12T05:28:37.916Z,3.54
2024-03-12T05:28:55.674Z,3.54
2024-03-12T05:29:27.865Z,3.54
2024-03-12T05:29:59.650Z,3.54
2024-03-12T05:30:32.550Z,3.54
2024-03-12T05:31:03.470Z,3.54
2024-03-12T05:31:35.032Z,3.54
2024-03-12T05:32:07.560Z,3.54
2024-03-12T05:32:37.186Z,3.54
2024-03-12T05:32:55.766Z,3.54
2024-03-12T05:33:28.070Z,3.54
2024-03-12T05:33:59.403Z,3.54
2024-03-12T05:34:31.352Z,3.54
2024-03-12T05:35:05.376Z,3.05
2024-03-12T05:35:35.027Z,2.57
2024-03-12T05:36:07.551Z,2.57
2024-03-12T05:36:36.928Z,2.57
2024-03-12T05:36:55.251Z,2.57
2024-03-12T05:37:27.931Z,2.33
2024-03-12T05:37:59.422Z,2.09
2024-03-12T05:38:31.428Z,1.93
2024-03-12T05:39:03.253Z,1.77
2024-03-12T05:39:35.353Z,1.61
2024-03-12T05:40:09.520Z,1.44
2024-03-12T05:40:36.407Z,1.44
2024-03-12T05:40:58.119Z,1.28
2024-03-12T05:41:27.769Z,1.12
2024-03-12T05:41:59.831Z,.72
2024-03-12T05:42:31.562Z,.32
2024-03-12T05:43:03.415Z,.32
2024-03-12T05:43:35.040Z,.32
2024-03-12T05:44:07.757Z,.16
2024-03-12T05:44:36.402Z,0
2024-03-12T05:44:55.419Z,0
2024-03-12T05:45:29.075Z,0
2024-03-12T05:46:00.145Z,0
2024-03-12T05:46:31.612Z,0
2024-03-12T05:47:03.175Z,0
2024-03-12T05:47:35.278Z,0
2024-03-12T05:48:08.317Z,0
2024-03-12T05:48:36.605Z,0
2024-03-12T05:48:55.543Z,0
2024-03-12T05:49:27.817Z,0
2024-03-12T05:50:01.139Z,0
2024-03-12T05:50:32.067Z,0
2024-03-12T05:51:03.190Z,0
2024-03-12T05:51:35.129Z,0
2024-03-12T05:52:07.465Z,0
2024-03-12T05:52:36.845Z,0
2024-03-12T05:52:55.127Z,0
2024-03-12T05:53:28.063Z,0
2024-03-12T05:53:59.801Z,0
2024-03-12T05:54:31.301Z,0
2024-03-12T05:55:06.074Z,0
2024-03-12T05:55:35.048Z,.16
2024-03-12T05:56:07.802Z,.72
2024-03-12T05:56:36.265Z,1.28
2024-03-12T05:56:55.710Z,1.44
2024-03-12T05:57:27.772Z,1.61
2024-03-12T05:57:59.305Z,1.77
2024-03-12T05:58:31.453Z,1.77
2024-03-12T05:59:03.105Z,1.77
2024-03-12T05:59:35.169Z,1.77
2024-03-12T06:00:09.314Z,1.77
2024-03-12T06:00:36.431Z,1.93
2024-03-12T06:00:56.271Z,2.09
2024-03-12T06:01:30.156Z,2.49
2024-03-12T06:01:59.379Z,2.89
2024-03-12T06:02:31.477Z,3.22
2024-03-12T06:03:03.064Z,3.54
2024-03-12T06:03:35.168Z,3.54
2024-03-12T06:04:07.553Z,3.54
2024-03-12T06:04:36.245Z,3.54
2024-03-12T06:04:56.627Z,3.54
2024-03-12T06:05:29.072Z,3.54
2024-03-12T06:06:00.674Z,3.54
2024-03-12T06:06:31.770Z,3.54
2024-03-12T06:07:03.789Z,3.54
2024-03-12T06:07:36.848Z,3.54
2024-03-12T06:08:07.833Z,3.54
2024-03-12T06:08:36.990Z,3.54
2024-03-12T06:08:55.323Z,3.54
2024-03-12T06:09:27.760Z,3.54
2024-03-12T06:09:59.891Z,3.54
2024-03-12T06:10:32.553Z,3.54
2024-03-12T06:11:03.074Z,3.54
2024-03-12T06:11:35.196Z,3.54
2024-03-12T06:12:07.597Z,3.54
2024-03-12T06:12:36.640Z,3.54
2024-03-12T06:12:55.132Z,3.54
2024-03-12T06:13:27.819Z,3.54
2024-03-12T06:14:02.158Z,3.54
2024-03-12T06:14:31.240Z,3.54
2024-03-12T06:15:06.452Z,3.54
2024-03-12T06:15:35.958Z,3.54
2024-03-12T06:16:07.381Z,3.54
2024-03-12T06:16:36.962Z,3.54
2024-03-12T06:16:55.853Z,3.38
2024-03-12T06:17:27.853Z,3.05
2024-03-12T06:17:59.634Z,2.89
2024-03-12T06:18:31.274Z,2.49
2024-03-12T06:19:03.139Z,1.93
2024-03-12T06:19:35.699Z,1.77
2024-03-12T06:20:11.319Z,1.61
2024-03-12T06:20:36.745Z,1.44
2024-03-12T06:20:57.372Z,1.04
2024-03-12T06:21:28.013Z,.48
2024-03-12T06:22:00.310Z,.32
2024-03-12T06:22:31.292Z,.16
2024-03-12T06:23:03.105Z,0
2024-03-12T06:23:35.823Z,0
2024-03-12T06:24:07.338Z,0
2024-03-12T06:24:36.926Z,0
2024-03-12T06:24:55.142Z,0
2024-03-12T06:25:28.758Z,0
2024-03-12T06:25:59.523Z,0
2024-03-12T06:26:31.307Z,0
2024-03-12T06:27:03.213Z,0
2024-03-12T06:27:35.047Z,0
2024-03-12T06:28:08.575Z,0
2024-03-12T06:28:36.392Z,0
2024-03-12T06:28:55.154Z,0
2024-03-12T06:29:27.767Z,0
2024-03-12T06:30:00.207Z,.16
2024-03-12T06:30:32.753Z,.32
2024-03-12T06:31:03.454Z,.48
2024-03-12T06:31:35.318Z,.64
2024-03-12T06:32:07.325Z,.88
2024-03-12T06:32:36.571Z,1.12
2024-03-12T06:32:55.318Z,1.12
2024-03-12T06:33:28.480Z,1.28
2024-03-12T06:33:59.287Z,1.28
2024-03-12T06:34:32.142Z,1.44
2024-03-12T06:35:05.642Z,1.61
2024-03-12T06:35:36.091Z,1.61
2024-03-12T06:36:07.641Z,1.77
2024-03-12T06:36:36.949Z,1.77
2024-03-12T06:36:55.622Z,1.77
2024-03-12T06:37:27.815Z,1.77
2024-03-12T06:37:59.997Z,1.77
2024-03-12T06:38:31.471Z,1.77
2024-03-12T06:39:03.151Z,1.77
2024-03-12T06:39:35.926Z,1.77
2024-03-12T06:40:08.930Z,1.77
2024-03-12T06:40:37.231Z,1.77
2024-03-12T06:40:57.089Z,1.77
2024-03-12T06:41:28.625Z,1.77
2024-03-12T06:42:00.007Z,1.77
2024-03-12T06:42:31.618Z,1.77